createdAt,value
2018-07-15T00:00:34.108Z,90.30
2018-07-15T00:02:36.799Z,90.70
2018-07-15T00:04:39.643Z,90.30
2018-07-15T00:06:42.440Z,90.10
2018-07-15T00:08:45.197Z,90.10
2018-07-15T00:10:47.768Z,90.50
2018-07-15T00:12:50.608Z,90.80
2018-07-15T00:14:53.213Z,90.00
2018-07-15T00:16:55.938Z,89.20
2018-07-15T00:18:58.878Z,89.30
2018-07-15T00:21:01.552Z,89.20
2018-07-15T00:23:04.296Z,90.80
2018-07-15T00:25:06.993Z,91.00
2018-07-15T00:27:09.608Z,91.30
2018-07-15T00:29:12.154Z,91.30
2018-07-15T00:31:14.753Z,91.40
2018-07-15T00:33:17.403Z,91.20
2018-07-15T00:35:20.117Z,91.10
2018-07-15T00:37:22.937Z,91.30
2018-07-15T00:39:25.645Z,90.50
2018-07-15T00:41:28.334Z,90.70
2018-07-15T00:43:31.104Z,90.90
2018-07-15T00:45:34.059Z,90.60
2018-07-15T00:47:36.844Z,90.60
2018-07-15T00:49:39.620Z,90.40
2018-07-15T00:51:42.440Z,90.00
2018-07-15T00:53:45.111Z,89.80
2018-07-15T00:55:47.846Z,88.70
2018-07-15T00:57:50.491Z,88.40
2018-07-15T00:59:53.140Z,90.00
2018-07-15T01:01:55.821Z,90.40
2018-07-15T01:03:58.458Z,90.90
2018-07-15T01:06:01.355Z,88.80
2018-07-15T01:08:04.156Z,90.10
2018-07-15T01:10:06.991Z,90.10
2018-07-15T01:12:09.725Z,89.60
2018-07-15T01:14:12.382Z,90.40
2018-07-15T01:16:15.049Z,90.50
2018-07-15T01:18:17.771Z,93.10
2018-07-15T01:20:20.299Z,92.50
2018-07-15T01:22:22.351Z,91.60
2018-07-15T01:24:24.426Z,91.70
2018-07-15T01:26:26.489Z,91.10
2018-07-15T01:28:28.577Z,90.80
2018-07-15T01:30:30.637Z,89.90
2018-07-15T01:32:32.738Z,88.00
2018-07-15T01:34:34.801Z,87.20
2018-07-15T01:36:36.861Z,87.50
2018-07-15T01:38:38.928Z,88.30
2018-07-15T01:40:40.981Z,89.40
2018-07-15T01:42:43.109Z,90.10
2018-07-15T01:44:45.159Z,90.80
2018-07-15T01:46:47.210Z,91.10
2018-07-15T01:48:49.285Z,90.50
2018-07-15T01:50:51.345Z,88.90
2018-07-15T01:52:53.397Z,89.10
2018-07-15T01:54:55.457Z,90.10
2018-07-15T01:56:57.494Z,89.90
2018-07-15T01:58:59.549Z,90.60
2018-07-15T02:01:01.612Z,90.30
2018-07-15T02:03:03.669Z,89.60
2018-07-15T02:05:06.361Z,90.20
2018-07-15T02:07:08.429Z,90.20
2018-07-15T02:09:10.473Z,88.50
2018-07-15T02:11:12.541Z,88.90
2018-07-15T02:13:14.602Z,88.40
2018-07-15T02:15:16.692Z,89.20
2018-07-15T02:17:18.773Z,89.30
2018-07-15T02:19:20.853Z,90.00
2018-07-15T02:21:22.900Z,92.70
2018-07-15T02:25:27.085Z,91.30
2018-07-15T02:27:29.153Z,91.30
2018-07-15T02:29:31.205Z,91.30
2018-07-15T02:31:33.258Z,91.30
2018-07-15T02:33:35.350Z,90.90
2018-07-15T02:35:37.398Z,90.80
2018-07-15T02:37:39.497Z,90.80
2018-07-15T02:39:41.574Z,90.40
2018-07-15T02:41:43.624Z,91.00
2018-07-15T02:43:45.701Z,90.70
2018-07-15T02:45:47.750Z,90.80
2018-07-15T02:47:49.793Z,91.50
2018-07-15T02:49:51.837Z,91.40
2018-07-15T02:51:53.901Z,91.60
2018-07-15T02:53:55.962Z,90.70
2018-07-15T02:55:58.009Z,89.70
2018-07-15T02:58:00.067Z,89.60
2018-07-15T03:00:02.122Z,90.80
2018-07-15T03:02:04.283Z,91.50
2018-07-15T03:04:06.271Z,91.80
2018-07-15T03:06:08.321Z,91.90
2018-07-15T03:08:10.391Z,92.60
2018-07-15T03:10:12.466Z,91.90
2018-07-15T03:12:14.533Z,91.90
2018-07-15T03:14:16.594Z,91.80
2018-07-15T03:16:18.657Z,91.20
2018-07-15T03:18:20.701Z,91.10
2018-07-15T03:20:22.749Z,91.00
2018-07-15T03:22:24.807Z,90.60
2018-07-15T03:24:26.873Z,90.30
2018-07-15T03:26:28.934Z,90.00
2018-07-15T03:28:30.977Z,89.40
2018-07-15T03:30:33.038Z,89.90
2018-07-15T03:32:35.091Z,90.00
2018-07-15T03:34:37.193Z,90.90
2018-07-15T03:36:39.246Z,92.20
2018-07-15T03:38:41.321Z,92.60
2018-07-15T03:40:45.437Z,92.70
2018-07-15T03:42:47.506Z,93.60
2018-07-15T03:44:49.592Z,94.50
2018-07-15T03:46:51.669Z,94.90
2018-07-15T03:48:53.727Z,93.90
2018-07-15T03:50:55.777Z,94.50
2018-07-15T03:52:57.833Z,94.20
2018-07-15T03:54:59.888Z,93.80
2018-07-15T03:57:01.934Z,92.80
2018-07-15T03:59:04.013Z,92.10
2018-07-15T04:01:06.053Z,92.00
2018-07-15T04:03:08.098Z,91.90
2018-07-15T04:05:10.146Z,92.20
2018-07-15T04:07:12.194Z,91.80
2018-07-15T04:09:14.255Z,92.20
2018-07-15T04:11:16.294Z,92.70
2018-07-15T04:13:18.349Z,92.90
2018-07-15T04:15:20.400Z,92.70
2018-07-15T04:17:22.468Z,93.20
2018-07-15T04:19:24.518Z,93.50
2018-07-15T04:21:26.568Z,95.00
2018-07-15T04:23:28.638Z,94.80
2018-07-15T04:25:31.467Z,95.00
2018-07-15T04:27:33.501Z,95.10
2018-07-15T04:29:35.550Z,95.70
2018-07-15T04:31:37.610Z,95.20
2018-07-15T04:35:41.782Z,96.20
2018-07-15T04:37:43.853Z,96.60
2018-07-15T04:39:45.921Z,96.60
2018-07-15T04:41:47.988Z,97.00
2018-07-15T04:43:50.058Z,97.40
2018-07-15T04:45:52.108Z,97.30
2018-07-15T04:47:54.157Z,97.40
2018-07-15T04:49:56.228Z,97.70
2018-07-15T04:51:58.263Z,97.80
2018-07-15T04:54:00.297Z,98.30
2018-07-15T04:56:02.355Z,98.70
2018-07-15T04:58:04.413Z,98.80
2018-07-15T05:00:06.499Z,98.80
2018-07-15T05:02:08.605Z,98.90
2018-07-15T05:04:12.257Z,99.40
2018-07-15T05:06:14.853Z,99.50
2018-07-15T05:08:16.878Z,99.80
2018-07-15T05:10:18.933Z,99.90
2018-07-15T05:12:21.016Z,99.80
2018-07-15T05:14:23.049Z,98.70
2018-07-15T05:16:25.101Z,98.70
2018-07-15T05:18:27.224Z,98.80
2018-07-15T05:20:29.225Z,99.00
2018-07-15T05:22:31.290Z,99.40
2018-07-15T05:24:33.393Z,98.80
2018-07-15T05:26:35.436Z,98.50
2018-07-15T05:28:37.480Z,98.70
2018-07-15T05:30:39.521Z,98.20
2018-07-15T05:32:41.573Z,97.90
2018-07-15T05:34:43.649Z,97.80
2018-07-15T05:36:45.710Z,97.10
2018-07-15T05:38:47.774Z,97.80
2018-07-15T05:40:49.846Z,97.20
2018-07-15T05:42:51.901Z,95.90
2018-07-15T05:44:53.981Z,96.90
2018-07-15T05:46:56.025Z,97.40
2018-07-15T05:48:58.070Z,95.70
2018-07-15T05:51:00.143Z,95.40
2018-07-15T05:53:02.217Z,95.30
2018-07-15T05:57:06.481Z,95.40
2018-07-15T05:59:08.538Z,94.40
2018-07-15T06:01:10.604Z,94.20
2018-07-15T06:03:12.757Z,93.10
2018-07-15T06:05:14.825Z,94.10
2018-07-15T06:07:16.885Z,92.90
2018-07-15T06:09:18.947Z,92.40
2018-07-15T06:11:21.021Z,91.70
2018-07-15T06:13:23.088Z,91.70
2018-07-15T06:15:25.202Z,91.80
2018-07-15T06:17:27.244Z,91.50
2018-07-15T06:19:29.311Z,92.10
2018-07-15T06:21:31.374Z,90.50
2018-07-15T06:23:33.429Z,90.10
2018-07-15T06:25:35.481Z,88.90
2018-07-15T06:27:37.514Z,87.30
2018-07-15T06:29:39.581Z,88.80
2018-07-15T06:31:41.622Z,86.90
2018-07-15T06:33:43.687Z,84.20
2018-07-15T06:35:45.741Z,79.20
2018-07-15T06:37:47.818Z,82.70
2018-07-15T06:39:49.857Z,80.80
2018-07-15T06:41:51.913Z,77.90
2018-07-15T06:45:56.077Z,78.00
2018-07-15T06:47:58.269Z,76.00
2018-07-15T06:50:00.302Z,74.30
2018-07-15T06:52:02.354Z,80.20
2018-07-15T06:54:04.481Z,70.10
2018-07-15T06:56:06.529Z,69.80
2018-07-15T06:58:08.565Z,62.60
2018-07-15T07:00:10.593Z,63.30
2018-07-15T07:02:12.622Z,59.70
2018-07-15T07:04:14.649Z,55.00
2018-07-15T07:06:16.681Z,56.20
2018-07-15T07:08:18.732Z,54.70
2018-07-15T07:10:20.794Z,57.00
2018-07-15T07:12:22.849Z,52.30
2018-07-15T07:14:24.893Z,53.50
2018-07-15T07:16:26.952Z,56.30
2018-07-15T07:18:29.003Z,49.70
2018-07-15T21:42:52.709Z,57.10
2018-07-15T21:44:54.788Z,58.10
2018-07-15T21:46:56.873Z,58.70
2018-07-15T21:48:59.217Z,58.90
2018-07-15T21:51:02.398Z,63.50
2018-07-15T21:53:04.883Z,62.40
2018-07-15T21:55:06.977Z,59.20
2018-07-15T21:57:09.081Z,59.10
2018-07-15T21:59:11.137Z,61.30
2018-07-15T22:01:13.218Z,62.50
2018-07-15T22:03:15.327Z,62.80
2018-07-15T22:05:18.194Z,59.10
2018-07-15T22:07:31.950Z,56.90
2018-07-15T22:09:55.017Z,56.90
2018-07-15T22:11:58.445Z,56.70
2018-07-15T22:14:00.501Z,58.10
2018-07-15T22:16:02.582Z,59.60
2018-07-15T22:18:04.633Z,61.20
2018-07-15T22:20:06.702Z,62.10
2018-07-15T22:22:08.741Z,63.00
2018-07-15T22:24:10.809Z,62.70
2018-07-15T22:26:12.885Z,63.00
2018-07-15T22:28:14.966Z,61.60
2018-07-15T22:30:17.030Z,64.40
2018-07-15T22:32:19.101Z,63.90
2018-07-15T22:34:21.161Z,63.70
2018-07-15T22:36:23.225Z,65.90
2018-07-15T22:38:25.525Z,65.90
2018-07-15T22:40:27.617Z,62.20
2018-07-15T22:42:29.703Z,64.80
2018-07-15T22:44:31.785Z,65.10
2018-07-15T22:46:33.870Z,65.60
2018-07-15T22:48:35.927Z,70.80
2018-07-15T22:50:37.978Z,71.40
2018-07-15T22:52:40.075Z,70.70
2018-07-15T22:54:42.164Z,68.30
2018-07-15T22:56:44.272Z,69.50
2018-07-15T22:58:46.404Z,71.60
2018-07-15T23:00:48.502Z,73.20
2018-07-15T23:02:50.616Z,74.10
2018-07-15T23:06:01.736Z,73.10
2018-07-15T23:08:04.558Z,73.70
2018-07-15T23:10:06.648Z,80.00
2018-07-15T23:12:08.768Z,79.60
2018-07-15T23:14:10.853Z,74.00
2018-07-15T23:16:12.965Z,73.00
2018-07-15T23:18:15.066Z,74.30
2018-07-15T23:20:17.125Z,78.60
2018-07-15T23:22:19.193Z,78.80
2018-07-15T23:24:21.288Z,76.80
2018-07-15T23:26:23.404Z,73.80
2018-07-15T23:28:25.505Z,72.90
2018-07-15T23:30:28.363Z,72.20
2018-07-15T23:32:30.437Z,73.00
2018-07-15T23:34:32.509Z,73.70
2018-07-15T23:36:34.581Z,75.40
2018-07-15T23:38:36.661Z,75.00
2018-07-15T23:40:38.737Z,75.70
2018-07-15T23:42:40.858Z,77.00
2018-07-15T23:44:42.952Z,77.80
2018-07-15T23:46:45.046Z,77.90
2018-07-15T23:48:47.166Z,78.00
2018-07-15T23:50:49.296Z,78.70
2018-07-15T23:52:51.493Z,77.30
2018-07-15T23:54:53.702Z,76.50
2018-07-15T23:56:55.790Z,77.70
2018-07-15T23:58:57.857Z,78.00
